createdAt,value
2022-10-06T00:02:06.365Z,4.13
2022-10-06T00:05:09.134Z,4.05
2022-10-06T00:08:11.691Z,3.95
2022-10-06T00:11:15.820Z,3.83
2022-10-06T00:14:18.238Z,3.80
2022-10-06T00:17:20.912Z,3.87
2022-10-06T00:20:25.863Z,3.70
2022-10-06T00:23:29.079Z,4.25
2022-10-06T00:26:31.558Z,4.22
2022-10-06T00:29:34.247Z,4.12
2022-10-06T00:32:36.947Z,4.60
2022-10-06T00:35:39.818Z,4.05
2022-10-06T00:38:42.369Z,4.15
2022-10-06T00:41:45.232Z,4.62
2022-10-06T00:44:49.655Z,3.80
2022-10-06T00:47:53.896Z,4.03
2022-10-06T00:50:57.496Z,4.40
2022-10-06T00:54:01.048Z,4.57
2022-10-06T00:57:05.162Z,3.95
2022-10-06T01:00:09.228Z,4.82
2022-10-06T01:03:24.908Z,4.40
2022-10-06T01:06:27.819Z,4.85
2022-10-06T01:09:30.955Z,5.07
2022-10-06T01:12:33.927Z,5.12
2022-10-06T01:15:44.740Z,5.28
2022-10-06T01:18:48.557Z,5.57
2022-10-06T01:21:51.276Z,6.00
2022-10-06T01:24:54.127Z,5.90
2022-10-06T01:27:58.296Z,6.65
2022-10-06T01:31:02.158Z,6.45
2022-10-06T01:34:05.926Z,5.93
2022-10-06T01:37:08.643Z,5.82
2022-10-06T01:40:11.387Z,6.37
2022-10-06T01:43:14.534Z,6.18
2022-10-06T01:46:18.005Z,6.10
2022-10-06T01:49:20.799Z,5.93
2022-10-06T01:52:24.060Z,5.35
2022-10-06T01:55:27.580Z,6.37
2022-10-06T01:58:31.441Z,6.60
2022-10-06T02:01:35.913Z,5.90
2022-10-06T02:04:38.756Z,6.47
2022-10-06T02:07:41.656Z,5.90
2022-10-06T02:10:44.375Z,6.15
2022-10-06T02:13:50.201Z,6.35
2022-10-06T02:16:52.992Z,6.05
2022-10-06T02:19:55.502Z,6.87
2022-10-06T02:22:58.363Z,6.28
2022-10-06T02:26:05.512Z,6.62
2022-10-06T02:29:09.791Z,6.35
2022-10-06T02:32:12.329Z,6.10
2022-10-06T02:35:15.433Z,6.10
2022-10-06T02:38:18.427Z,6.07
2022-10-06T02:41:21.232Z,6.30
2022-10-06T02:44:25.110Z,6.12
2022-10-06T02:47:28.133Z,6.28
2022-10-06T02:50:34.808Z,6.37
2022-10-06T02:53:38.615Z,6.20
2022-10-06T02:56:41.089Z,5.95
2022-10-06T02:59:43.807Z,6.53
2022-10-06T03:02:46.423Z,5.72
2022-10-06T03:05:49.217Z,6.57
2022-10-06T03:08:52.608Z,7.05
2022-10-06T03:11:55.400Z,6.68
2022-10-06T03:14:59.569Z,6.90
2022-10-06T03:18:02.433Z,6.22
2022-10-06T03:21:04.911Z,6.80
2022-10-06T03:24:07.856Z,6.68
2022-10-06T03:27:11.840Z,6.37
2022-10-06T03:30:15.571Z,6.72
2022-10-06T03:33:18.265Z,6.97
2022-10-06T03:36:23.639Z,6.23
2022-10-06T03:39:26.293Z,6.87
2022-10-06T03:42:29.048Z,6.87
2022-10-06T03:45:32.194Z,6.87
2022-10-06T03:48:35.497Z,6.57
2022-10-06T03:51:40.468Z,6.33
2022-10-06T03:54:43.672Z,7.05
2022-10-06T03:57:46.637Z,7.55
2022-10-06T04:00:49.562Z,6.93
2022-10-06T04:03:54.204Z,7.15
2022-10-06T04:06:56.793Z,6.83
2022-10-06T04:09:59.696Z,6.65
2022-10-06T04:13:02.489Z,6.95
2022-10-06T04:16:25.542Z,7.10
2022-10-06T04:19:28.079Z,6.80
2022-10-06T04:22:30.849Z,6.80
2022-10-06T04:25:34.185Z,6.82
2022-10-06T04:28:38.797Z,7.28
2022-10-06T04:31:42.610Z,7.10
2022-10-06T04:34:46.249Z,6.53
2022-10-06T04:37:50.072Z,6.83
2022-10-06T04:40:52.910Z,7.12
2022-10-06T04:43:55.732Z,7.40
2022-10-06T04:47:00.635Z,7.05
2022-10-06T04:50:04.445Z,6.57
2022-10-06T04:53:07.232Z,7.03
2022-10-06T04:56:12.426Z,7.20
2022-10-06T04:59:15.288Z,7.15
2022-10-06T05:02:19.820Z,7.93
2022-10-06T05:05:24.156Z,7.15
2022-10-06T05:08:27.979Z,7.27
2022-10-06T05:11:31.963Z,8.27
2022-10-06T05:14:35.347Z,7.28
2022-10-06T05:17:38.933Z,7.30
2022-10-06T05:20:43.056Z,7.30
2022-10-06T05:23:46.620Z,7.37
2022-10-06T05:26:49.387Z,7.82
2022-10-06T05:29:52.480Z,7.93
2022-10-06T05:32:55.143Z,6.93
2022-10-06T05:36:00.370Z,7.30
2022-10-06T05:39:03.415Z,6.90
2022-10-06T05:42:07.596Z,6.90
2022-10-06T05:45:10.605Z,6.80
2022-10-06T05:48:13.501Z,6.78
2022-10-06T05:51:17.880Z,7.75
2022-10-06T05:54:20.983Z,6.87
2022-10-06T05:57:24.272Z,6.80
2022-10-06T06:00:27.212Z,6.70
2022-10-06T06:03:29.991Z,6.93
2022-10-06T06:06:38.476Z,6.55
2022-10-06T06:09:42.138Z,6.97
2022-10-06T06:12:47.870Z,7.15
2022-10-06T06:16:04.325Z,6.20
2022-10-06T06:19:08.764Z,6.87
2022-10-06T06:22:12.383Z,7.57
2022-10-06T06:25:15.474Z,7.83
2022-10-06T06:28:18.886Z,8.02
2022-10-06T06:31:26.673Z,7.60
2022-10-06T06:34:30.169Z,6.87
2022-10-06T06:37:33.391Z,6.37
2022-10-06T06:40:40.837Z,6.47
2022-10-06T06:43:44.246Z,6.10
2022-10-06T06:46:49.385Z,7.03
2022-10-06T06:49:52.967Z,6.25
2022-10-06T06:52:55.990Z,6.45
2022-10-06T06:55:58.518Z,6.20
2022-10-06T06:59:03.303Z,6.32
2022-10-06T07:02:06.322Z,6.47
2022-10-06T07:05:11.595Z,6.75
2022-10-06T07:08:16.114Z,6.65
2022-10-06T07:11:50.268Z,6.63
2022-10-06T07:15:11.598Z,6.97
2022-10-06T07:18:33.619Z,6.85
2022-10-06T07:21:55.251Z,6.75
2022-10-06T07:25:11.823Z,5.93
2022-10-06T07:28:17.200Z,5.60
2022-10-06T07:31:20.522Z,5.45
2022-10-06T07:34:23.658Z,5.70
2022-10-06T07:37:28.950Z,5.72
2022-10-06T07:40:33.133Z,5.50
2022-10-06T07:43:36.036Z,5.60
2022-10-06T07:46:38.857Z,5.10
2022-10-06T07:49:43.087Z,5.20
2022-10-06T07:52:47.712Z,5.55
2022-10-06T07:55:50.674Z,5.47
2022-10-06T07:58:53.523Z,5.13
2022-10-06T08:01:56.436Z,5.20
2022-10-06T08:04:59.357Z,5.15
2022-10-06T08:08:02.477Z,4.55
2022-10-06T08:11:06.008Z,4.68
2022-10-06T08:14:09.478Z,4.80
2022-10-06T08:17:12.252Z,4.87
2022-10-06T08:20:14.868Z,4.30
2022-10-06T08:23:17.685Z,4.10
2022-10-06T08:26:21.646Z,4.68
2022-10-06T08:29:24.436Z,4.23
2022-10-06T08:32:27.074Z,4.90
2022-10-06T08:35:32.815Z,4.70
2022-10-06T08:38:38.757Z,4.68
2022-10-06T08:41:48.532Z,4.78
2022-10-06T08:44:57.649Z,4.17
2022-10-06T08:48:04.579Z,4.53
2022-10-06T08:51:30.059Z,4.70
2022-10-06T08:54:45.821Z,4.18
2022-10-06T09:01:25.584Z,4.17
2022-10-06T09:04:30.179Z,4.55
2022-10-06T09:07:43.968Z,4.85
2022-10-06T09:11:02.018Z,4.20
2022-10-06T09:14:14.189Z,4.90
2022-10-06T09:17:28.021Z,4.47
2022-10-06T09:20:42.961Z,4.82
2022-10-06T09:23:53.483Z,4.70
2022-10-06T09:26:58.097Z,4.68
2022-10-06T09:30:05.007Z,4.90
2022-10-06T09:33:17.002Z,4.53
2022-10-06T09:36:19.664Z,4.32
2022-10-06T09:39:27.806Z,4.90
2022-10-06T09:42:35.790Z,4.82
2022-10-06T09:45:38.670Z,5.00
2022-10-06T09:48:41.794Z,4.30
2022-10-06T09:52:02.931Z,4.62
2022-10-06T09:55:28.059Z,4.70
2022-10-06T09:58:37.997Z,4.80
2022-10-06T10:01:42.185Z,4.20
2022-10-06T10:04:48.386Z,4.63
2022-10-06T10:08:23.216Z,4.37
2022-10-06T10:11:46.994Z,4.07
2022-10-06T10:14:49.470Z,4.00
2022-10-06T10:17:54.003Z,4.15
2022-10-06T10:21:00.490Z,4.00
2022-10-06T10:24:06.737Z,3.95
2022-10-06T10:27:14.792Z,3.83
2022-10-06T10:30:18.218Z,3.58
2022-10-06T10:33:54.163Z,4.32
2022-10-06T10:37:39.847Z,4.43
2022-10-06T10:40:51.562Z,4.45
2022-10-06T10:44:08.492Z,4.22
2022-10-06T10:47:25.980Z,4.22
2022-10-06T10:50:32.999Z,4.72
2022-10-06T10:54:10.711Z,4.37
2022-10-06T10:57:17.265Z,4.45
2022-10-06T11:00:28.215Z,4.28
2022-10-06T11:03:31.143Z,4.18
2022-10-06T11:06:54.120Z,4.05
2022-10-06T11:09:56.857Z,4.30
2022-10-06T11:13:20.562Z,4.43
2022-10-06T11:16:23.603Z,4.45
2022-10-06T11:19:41.485Z,4.28
2022-10-06T11:22:55.245Z,4.10
2022-10-06T11:26:09.996Z,4.00
2022-10-06T11:29:17.225Z,3.30
2022-10-06T11:32:41.739Z,3.80
2022-10-06T11:35:46.140Z,3.33
2022-10-06T11:38:58.683Z,3.87
2022-10-06T11:42:46.756Z,3.40
2022-10-06T11:46:11.386Z,3.35
2022-10-06T11:49:29.405Z,3.65
2022-10-06T11:52:31.921Z,3.15
2022-10-06T11:55:35.156Z,2.65
2022-10-06T11:58:56.399Z,2.57
2022-10-06T12:01:59.323Z,2.58
2022-10-06T12:05:48.282Z,2.40
2022-10-06T12:08:42.182Z,2.00
2022-10-06T12:11:45.516Z,2.70
2022-10-06T12:18:38.068Z,2.30
2022-10-06T12:21:45.700Z,1.67
2022-10-06T12:24:59.200Z,2.42
2022-10-06T12:28:21.124Z,2.25
2022-10-06T12:31:46.757Z,2.53
2022-10-06T12:34:57.568Z,2.70
2022-10-06T12:38:06.156Z,2.58
2022-10-06T12:41:11.354Z,2.83
2022-10-06T12:44:23.379Z,2.80
2022-10-06T12:47:34.642Z,2.47
2022-10-06T12:50:38.071Z,2.80
2022-10-06T12:53:48.607Z,3.45
2022-10-06T12:57:18.334Z,4.43
2022-10-06T13:00:42.525Z,3.65
2022-10-06T13:03:49.723Z,3.47
2022-10-06T13:06:52.261Z,3.12
2022-10-06T13:10:10.331Z,3.17
2022-10-06T13:13:24.486Z,3.35
2022-10-06T13:16:39.443Z,2.87
2022-10-06T13:19:44.288Z,2.80
2022-10-06T13:22:55.529Z,3.40
2022-10-06T13:26:06.129Z,2.50
2022-10-06T13:29:35.147Z,2.30
2022-10-06T13:32:37.944Z,2.40
2022-10-06T13:35:40.835Z,2.70
2022-10-06T13:38:43.348Z,2.75
2022-10-06T13:41:49.497Z,2.60
2022-10-06T13:44:58.977Z,2.50
2022-10-06T13:48:03.895Z,2.70
2022-10-06T13:51:06.624Z,2.60
2022-10-06T13:54:24.966Z,2.58
2022-10-06T13:57:40.125Z,2.47
2022-10-06T14:00:50.754Z,2.67
2022-10-06T14:04:18.433Z,2.25
2022-10-06T14:07:22.120Z,2.10
2022-10-06T14:10:31.313Z,2.00
2022-10-06T14:13:53.201Z,2.80
2022-10-06T14:16:56.036Z,2.10
2022-10-06T14:19:59.032Z,1.95
2022-10-06T14:23:01.924Z,1.90
2022-10-06T14:26:04.310Z,2.30
2022-10-06T14:29:07.201Z,1.75
2022-10-06T14:32:14.108Z,1.90
2022-10-06T14:35:16.858Z,2.03
2022-10-06T14:38:20.290Z,2.00
2022-10-06T14:41:27.865Z,2.30
2022-10-06T14:44:31.161Z,2.00
2022-10-06T14:47:33.869Z,2.00
2022-10-06T14:50:36.615Z,5.15
2022-10-06T14:53:39.565Z,3.63
2022-10-06T14:56:42.490Z,3.28
2022-10-06T14:59:45.451Z,2.30
2022-10-06T15:02:48.127Z,2.25
2022-10-06T15:06:11.081Z,2.92
2022-10-06T15:09:14.158Z,2.03
2022-10-06T15:12:17.855Z,2.12
2022-10-06T15:15:23.604Z,2.30
2022-10-06T15:18:26.298Z,2.15
2022-10-06T15:21:31.398Z,2.22
2022-10-06T15:24:34.110Z,2.13
2022-10-06T15:27:54.858Z,2.40
2022-10-06T15:30:57.835Z,2.50
2022-10-06T15:34:02.062Z,4.05
2022-10-06T15:37:05.233Z,2.75
2022-10-06T15:40:08.059Z,2.80
2022-10-06T15:43:11.077Z,3.03
2022-10-06T15:46:13.543Z,2.00
2022-10-06T15:49:20.664Z,2.08
2022-10-06T15:52:23.181Z,3.10
2022-10-06T15:55:26.235Z,2.80
2022-10-06T15:58:28.668Z,2.70
2022-10-06T16:01:34.311Z,2.70
2022-10-06T16:04:38.427Z,2.60
2022-10-06T16:07:40.912Z,3.20
2022-10-06T16:10:49.711Z,3.97
2022-10-06T16:13:52.314Z,3.05
2022-10-06T16:16:59.880Z,2.45
2022-10-06T16:20:02.404Z,3.05
2022-10-06T16:23:05.232Z,9.68
2022-10-06T16:26:07.672Z,13.67
2022-10-06T16:29:10.429Z,11.50
2022-10-06T16:32:12.915Z,8.02
2022-10-06T16:35:18.380Z,8.35
2022-10-06T16:38:21.047Z,7.12
2022-10-06T16:41:24.024Z,7.07
2022-10-06T16:44:26.500Z,11.85
2022-10-06T16:47:29.240Z,7.12
2022-10-06T16:50:32.115Z,9.60
2022-10-06T16:53:42.734Z,6.22
2022-10-06T16:56:53.922Z,6.70
2022-10-06T16:59:56.617Z,7.05
2022-10-06T17:02:59.098Z,8.38
2022-10-06T17:06:07.467Z,10.93
2022-10-06T17:09:17.954Z,12.40
2022-10-06T17:12:20.677Z,7.50
2022-10-06T17:15:23.085Z,13.93
2022-10-06T17:18:26.257Z,12.95
2022-10-06T17:21:46.867Z,9.35
2022-10-06T17:24:50.287Z,16.40
2022-10-06T17:27:52.719Z,16.50
2022-10-06T17:30:59.364Z,13.93
2022-10-06T17:34:03.794Z,12.52
2022-10-06T17:37:06.969Z,10.95
2022-10-06T17:40:09.578Z,10.60
2022-10-06T17:43:12.715Z,10.77
2022-10-06T17:46:18.964Z,9.93
2022-10-06T17:49:22.555Z,7.10
2022-10-06T17:52:25.016Z,8.13
2022-10-06T17:55:28.117Z,7.82
2022-10-06T17:58:30.596Z,8.37
2022-10-06T18:01:35.722Z,7.20
2022-10-06T18:04:39.105Z,7.30
2022-10-06T18:07:41.742Z,7.18
2022-10-06T18:11:06.685Z,8.90
2022-10-06T18:14:10.112Z,10.87
2022-10-06T18:17:12.834Z,11.68
2022-10-06T18:20:16.096Z,12.18
2022-10-06T18:23:18.822Z,11.15
2022-10-06T18:26:21.383Z,10.10
2022-10-06T18:29:25.867Z,10.97
2022-10-06T18:33:45.068Z,11.65
2022-10-06T18:36:15.100Z,9.95
2022-10-06T18:39:18.291Z,9.50
2022-10-06T18:42:21.033Z,10.85
2022-10-06T18:45:42.201Z,10.87
2022-10-06T18:49:00.275Z,9.15
2022-10-06T18:52:03.277Z,9.70
2022-10-06T18:55:06.257Z,10.85
2022-10-06T18:58:08.739Z,11.07
2022-10-06T19:01:12.630Z,10.60
2022-10-06T19:04:20.159Z,10.20
2022-10-06T19:07:22.939Z,11.25
2022-10-06T19:10:27.392Z,10.77
2022-10-06T19:13:30.158Z,12.30
2022-10-06T19:16:32.721Z,12.10
2022-10-06T19:19:35.759Z,12.40
2022-10-06T19:22:38.671Z,11.50
2022-10-06T19:25:41.406Z,11.43
2022-10-06T19:28:43.962Z,12.85
2022-10-06T19:31:48.046Z,11.93
2022-10-06T19:34:50.623Z,12.45
2022-10-06T19:37:53.390Z,11.45
2022-10-06T19:41:17.111Z,10.57
2022-10-06T19:44:19.816Z,9.45
2022-10-06T19:47:22.489Z,9.93
2022-10-06T19:50:27.233Z,9.38
2022-10-06T19:53:30.693Z,10.38
2022-10-06T19:56:33.721Z,9.38
2022-10-06T19:59:36.764Z,7.62
2022-10-06T20:02:42.794Z,7.37
2022-10-06T20:05:46.205Z,7.18
2022-10-06T20:08:48.694Z,8.50
2022-10-06T20:11:51.730Z,7.32
2022-10-06T20:14:54.173Z,7.90
2022-10-06T20:17:56.871Z,6.57
2022-10-06T20:20:59.295Z,7.82
2022-10-06T20:24:07.459Z,7.97
2022-10-06T20:27:10.277Z,6.82
2022-10-06T20:30:13.483Z,7.22
2022-10-06T20:33:17.421Z,6.63
2022-10-06T20:36:20.262Z,7.32
2022-10-06T20:39:42.013Z,8.02
2022-10-06T20:42:49.209Z,8.10
2022-10-06T20:45:53.739Z,10.38
2022-10-06T20:48:56.747Z,10.33
2022-10-06T20:51:59.356Z,8.52
2022-10-06T20:55:02.097Z,9.55
2022-10-06T20:58:04.566Z,8.52
2022-10-06T21:01:12.732Z,8.43
2022-10-06T21:04:15.410Z,9.07
2022-10-06T21:07:18.572Z,9.77
2022-10-06T21:10:22.713Z,8.55
2022-10-06T21:13:25.914Z,8.32
2022-10-06T21:16:33.513Z,8.48
2022-10-06T21:19:37.913Z,8.10
2022-10-06T21:22:40.538Z,8.93
2022-10-06T21:25:43.267Z,9.68
2022-10-06T21:28:46.249Z,9.05
2022-10-06T21:31:49.011Z,9.68
2022-10-06T21:34:55.924Z,11.43
2022-10-06T21:37:58.662Z,9.65
2022-10-06T21:41:02.628Z,8.48
2022-10-06T21:44:06.636Z,9.18
2022-10-06T21:47:09.190Z,8.15
2022-10-06T21:50:12.785Z,9.10
2022-10-06T21:53:15.267Z,9.35
2022-10-06T21:56:18.439Z,9.88
2022-10-06T21:59:21.223Z,10.32
2022-10-06T22:02:24.004Z,10.77
2022-10-06T22:05:26.809Z,10.03
2022-10-06T22:08:34.652Z,10.25
2022-10-06T22:11:39.181Z,9.73
2022-10-06T22:14:41.990Z,9.23
2022-10-06T22:17:46.784Z,8.98
2022-10-06T22:20:49.627Z,9.67
2022-10-06T22:24:00.412Z,9.25
2022-10-06T22:27:03.185Z,9.30
2022-10-06T22:30:08.297Z,9.25
2022-10-06T22:33:10.954Z,9.77
2022-10-06T22:36:13.983Z,9.13
2022-10-06T22:39:16.595Z,9.05
2022-10-06T22:42:19.414Z,9.00
2022-10-06T22:45:21.916Z,9.18
2022-10-06T22:48:25.054Z,8.43
2022-10-06T22:51:29.881Z,8.27
2022-10-06T22:54:32.611Z,8.60
2022-10-06T22:57:35.103Z,8.50
2022-10-06T23:00:38.005Z,8.85
2022-10-06T23:03:41.002Z,9.18
2022-10-06T23:06:43.765Z,9.23
2022-10-06T23:09:46.243Z,8.55
2022-10-06T23:12:54.065Z,9.00
2022-10-06T23:16:06.497Z,8.38
2022-10-06T23:19:10.646Z,8.95
2022-10-06T23:22:13.243Z,8.57
2022-10-06T23:25:15.978Z,8.32
2022-10-06T23:28:18.635Z,8.93
2022-10-06T23:31:21.994Z,9.32
2022-10-06T23:34:24.639Z,8.50
2022-10-06T23:37:27.427Z,8.47
2022-10-06T23:40:30.349Z,9.68
2022-10-06T23:43:33.602Z,9.30
2022-10-06T23:46:36.031Z,9.85
2022-10-06T23:49:38.789Z,9.98
2022-10-06T23:52:41.763Z,10.03
2022-10-06T23:55:44.509Z,9.70
2022-10-06T23:58:47.129Z,9.48
